Time;durP1;ratioP1;P1;durP2;ratioP2;P2;SDS_P1;SDS_P2;PMS_P1;PMS_P2;Temp;Humidity;BMP_temperature;BMP_pressure;BME280_temperature;BME280_humidity;BME280_pressure;Samples;Min_cycle;Max_cycle;Signal;HPM_P1;HPM_P2
2024/02/19 00:01:09;;;;;;;43.17;38.00;;;10.50;99.90;;;;;;5015793;28;20255;-76
2024/02/19 00:03:36;;;;;;;43.22;37.83;;;10.50;99.90;;;;;;5016139;28;20290;-76
2024/02/19 00:06:04;;;;;;;47.10;41.72;;;10.50;99.90;;;;;;5017990;28;20314;-76
2024/02/19 00:08:31;;;;;;;43.15;36.95;;;10.50;99.90;;;;;;5014871;28;20195;-75
2024/02/19 00:10:58;;;;;;;50.83;42.38;;;10.50;99.90;;;;;;5016990;28;20255;-75
2024/02/19 00:13:27;;;;;;;44.97;40.17;;;10.50;99.90;;;;;;5017396;28;20301;-75
2024/02/19 00:15:54;;;;;;;38.58;34.17;;;10.60;99.90;;;;;;5019100;28;20314;-75
2024/02/19 00:18:20;;;;;;;38.78;34.60;;;10.60;99.90;;;;;;5015602;28;20273;-76
2024/02/19 00:20:47;;;;;;;33.42;29.83;;;10.60;99.90;;;;;;5016550;28;20316;-75
2024/02/19 00:23:15;;;;;;;33.72;30.10;;;10.70;99.90;;;;;;5020199;28;20677;-76
2024/02/19 00:25:42;;;;;;;33.17;29.58;;;10.70;99.90;;;;;;5016267;28;20231;-76
2024/02/19 00:28:10;;;;;;;33.13;29.50;;;10.80;99.90;;;;;;5015805;28;20281;-75
2024/02/19 00:30:39;;;;;;;31.48;28.10;;;10.80;99.90;;;;;;5015381;28;20220;-75
2024/02/19 00:33:06;;;;;;;32.47;28.98;;;10.80;99.90;;;;;;5022650;28;20215;-76
2024/02/19 00:35:33;;;;;;;33.22;28.90;;;10.90;99.90;;;;;;5023492;28;20265;-75
2024/02/19 00:38:00;;;;;;;32.70;29.13;;;10.90;99.90;;;;;;5024460;28;20219;-77
2024/02/19 00:40:28;;;;;;;32.53;29.13;;;10.90;99.90;;;;;;5026912;28;20225;-76
2024/02/19 00:42:55;;;;;;;34.05;30.33;;;10.90;99.90;;;;;;5028525;28;20300;-77
2024/02/19 00:45:22;;;;;;;35.22;30.63;;;10.90;99.90;;;;;;5024302;28;20909;-76
2024/02/19 00:47:50;;;;;;;30.30;27.20;;;10.80;99.90;;;;;;5024258;28;20226;-76
2024/02/19 00:50:17;;;;;;;34.80;30.88;;;10.80;99.90;;;;;;5022621;28;20219;-76
2024/02/19 00:52:44;;;;;;;28.35;25.35;;;10.80;99.90;;;;;;5023223;28;20229;-76
2024/02/19 00:55:11;;;;;;;29.27;26.13;;;10.80;99.90;;;;;;5022160;28;20262;-76
2024/02/19 00:57:38;;;;;;;29.25;25.95;;;10.90;99.90;;;;;;5023706;28;20771;-76
2024/02/19 01:00:06;;;;;;;30.40;27.17;;;10.80;99.90;;;;;;5021384;28;20250;-76
2024/02/19 01:02:34;;;;;;;31.10;27.90;;;10.90;99.90;;;;;;5023578;28;20200;-76
2024/02/19 01:05:03;;;;;;;35.05;30.98;;;10.90;99.90;;;;;;5023629;28;20227;-76
2024/02/19 01:07:30;;;;;;;34.78;30.75;;;10.90;99.90;;;;;;5025649;28;20195;-77
2024/02/19 01:09:57;;;;;;;32.35;28.95;;;10.90;99.90;;;;;;5022816;28;20266;-76
2024/02/19 01:12:25;;;;;;;35.42;31.52;;;10.90;99.90;;;;;;5024364;28;20215;-76
2024/02/19 01:14:52;;;;;;;40.00;35.50;;;10.90;99.90;;;;;;5021906;28;20230;-76
2024/02/19 01:17:19;;;;;;;34.10;30.48;;;10.90;99.90;;;;;;5026034;28;20203;-76
2024/02/19 01:19:46;;;;;;;33.47;29.83;;;10.90;99.90;;;;;;5023494;28;20310;-76
2024/02/19 01:22:14;;;;;;;30.00;26.50;;;10.90;99.90;;;;;;5020728;28;20247;-76
2024/02/19 01:24:41;;;;;;;31.25;27.95;;;10.80;99.90;;;;;;5025772;28;20250;-76
2024/02/19 01:27:08;;;;;;;29.45;26.20;;;10.80;99.90;;;;;;5022410;28;20247;-76
2024/02/19 01:29:35;;;;;;;29.13;25.77;;;10.80;99.90;;;;;;5021766;28;20304;-76
2024/02/19 01:32:02;;;;;;;27.98;24.98;;;10.80;99.90;;;;;;5023042;28;20259;-75
2024/02/19 01:34:30;;;;;;;28.40;25.40;;;10.80;99.90;;;;;;5022440;28;20246;-76
2024/02/19 01:36:57;;;;;;;32.05;28.58;;;10.80;99.90;;;;;;5023783;28;20227;-76
2024/02/19 01:39:25;;;;;;;32.88;29.23;;;10.80;99.90;;;;;;5016842;28;20905;-76
2024/02/19 01:41:52;;;;;;;34.25;30.10;;;10.80;99.90;;;;;;5023189;28;20251;-76
2024/02/19 01:44:20;;;;;;;30.42;27.20;;;10.70;99.90;;;;;;5016924;28;20772;-75
2024/02/19 01:46:48;;;;;;;31.55;28.25;;;10.70;99.90;;;;;;5018153;28;20251;-76
2024/02/19 01:49:15;;;;;;;30.30;26.92;;;10.60;99.90;;;;;;5017253;28;20278;-75
2024/02/19 01:51:43;;;;;;;31.88;28.35;;;10.60;99.90;;;;;;5018316;28;20869;-75
2024/02/19 01:54:12;;;;;;;27.90;24.77;;;10.60;99.90;;;;;;5020467;28;22138;-76
2024/02/19 01:56:41;;;;;;;27.50;24.60;;;10.60;99.90;;;;;;5017426;28;20250;-76
2024/02/19 01:59:10;;;;;;;29.15;25.95;;;10.70;99.90;;;;;;5019776;28;20251;-76
2024/02/19 02:01:39;;;;;;;30.30;27.00;;;10.70;99.90;;;;;;5014682;28;20243;-76
2024/02/19 02:04:07;;;;;;;28.98;25.95;;;10.70;99.90;;;;;;5017302;28;20255;-76
2024/02/19 02:06:34;;;;;;;27.75;24.85;;;10.60;99.90;;;;;;5023933;28;20243;-76
2024/02/19 02:09:02;;;;;;;29.27;26.02;;;10.60;99.90;;;;;;5019030;28;20223;-76
2024/02/19 02:11:29;;;;;;;30.52;26.42;;;10.60;99.90;;;;;;5019328;28;20227;-76
2024/02/19 02:13:57;;;;;;;30.52;27.17;;;10.60;99.90;;;;;;5018982;28;20341;-76
2024/02/19 02:16:25;;;;;;;31.58;28.17;;;10.60;99.90;;;;;;5041444;28;20313;-76
2024/02/19 02:18:52;;;;;;;31.58;28.23;;;10.60;99.90;;;;;;5016952;28;20659;-76
2024/02/19 02:21:20;;;;;;;30.60;27.33;;;10.60;99.90;;;;;;5021536;28;20235;-76
2024/02/19 02:23:47;;;;;;;34.35;28.35;;;10.60;99.90;;;;;;5019536;28;20231;-76
2024/02/19 02:26:15;;;;;;;30.45;27.15;;;10.60;99.90;;;;;;5016287;28;20306;-76
2024/02/19 02:28:43;;;;;;;32.92;27.35;;;10.60;99.90;;;;;;5020655;28;20239;-76
2024/02/19 02:31:10;;;;;;;30.77;27.55;;;10.60;99.90;;;;;;5019852;28;20285;-76
2024/02/19 02:33:37;;;;;;;29.30;26.13;;;10.60;99.90;;;;;;5022212;28;20314;-76
2024/02/19 02:36:05;;;;;;;31.17;27.88;;;10.60;99.90;;;;;;5020757;28;20764;-76
2024/02/19 02:38:32;;;;;;;33.78;30.08;;;10.60;99.90;;;;;;5014139;28;20283;-76
2024/02/19 02:40:59;;;;;;;33.17;28.50;;;10.50;99.90;;;;;;5021673;28;20254;-77
2024/02/19 02:43:27;;;;;;;33.97;30.00;;;10.50;99.90;;;;;;5022504;28;20293;-76
2024/02/19 02:45:55;;;;;;;31.50;28.05;;;10.40;99.90;;;;;;5021195;28;20614;-76
2024/02/19 02:48:22;;;;;;;33.88;29.75;;;10.40;99.90;;;;;;5016453;28;20210;-76
2024/02/19 02:50:49;;;;;;;33.00;29.40;;;10.40;99.90;;;;;;5017944;28;20756;-76
2024/02/19 02:53:17;;;;;;;33.97;30.33;;;10.40;99.90;;;;;;5017121;28;20880;-76
2024/02/19 02:55:44;;;;;;;34.28;29.40;;;10.40;99.90;;;;;;5002660;28;20308;-76
2024/02/19 02:58:11;;;;;;;37.33;33.25;;;10.30;99.90;;;;;;5022459;28;20286;-76
2024/02/19 03:00:38;;;;;;;35.53;31.63;;;10.30;99.90;;;;;;5015254;28;20784;-76
2024/02/19 03:03:06;;;;;;;34.60;30.65;;;10.30;99.90;;;;;;5024440;28;20686;-76
2024/02/19 03:05:33;;;;;;;34.75;31.05;;;10.20;99.90;;;;;;5016261;28;20247;-74
2024/02/19 03:08:00;;;;;;;36.08;31.48;;;10.20;99.90;;;;;;5019722;28;20414;-76
2024/02/19 03:10:27;;;;;;;33.75;30.05;;;10.20;99.90;;;;;;5010689;28;20290;-76
2024/02/19 03:12:54;;;;;;;33.00;29.50;;;10.10;99.90;;;;;;5019413;28;20275;-76
2024/02/19 03:15:21;;;;;;;31.88;28.35;;;10.20;99.90;;;;;;5017698;28;20243;-76
2024/02/19 03:17:48;;;;;;;32.60;29.10;;;10.20;99.90;;;;;;5017880;28;20261;-76
2024/02/19 03:20:18;;;;;;;33.65;30.08;;;10.20;99.90;;;;;;5015111;28;20325;-76
2024/02/19 03:22:45;;;;;;;32.72;29.15;;;10.30;99.90;;;;;;5023049;28;20770;-76
2024/02/19 03:25:13;;;;;;;33.47;29.15;;;10.20;99.90;;;;;;5013067;28;20248;-76
2024/02/19 03:27:40;;;;;;;35.75;31.90;;;10.30;99.90;;;;;;5017561;28;20300;-75
2024/02/19 03:30:09;;;;;;;34.47;30.33;;;10.20;99.90;;;;;;5017225;28;20311;-76
2024/02/19 03:32:36;;;;;;;36.85;32.75;;;10.20;99.90;;;;;;5020258;28;20746;-76
2024/02/19 03:35:05;;;;;;;35.78;31.08;;;10.20;99.90;;;;;;5017309;28;20223;-76
2024/02/19 03:37:33;;;;;;;35.42;30.38;;;10.10;99.90;;;;;;5038143;28;20290;-76
2024/02/19 03:40:00;;;;;;;32.88;29.23;;;10.10;99.90;;;;;;5018863;28;20281;-76
2024/02/19 03:42:28;;;;;;;29.35;26.13;;;10.10;99.90;;;;;;5014855;28;20231;-75
2024/02/19 03:44:55;;;;;;;30.30;26.85;;;10.20;99.90;;;;;;5016616;28;20227;-76
2024/02/19 03:47:22;;;;;;;33.83;28.77;;;10.10;99.90;;;;;;5015336;28;20204;-76
2024/02/19 03:49:49;;;;;;;29.45;26.35;;;10.10;99.90;;;;;;5017623;28;20277;-76
2024/02/19 03:52:17;;;;;;;26.25;23.50;;;10.10;99.90;;;;;;5017029;28;20203;-76
2024/02/19 03:54:45;;;;;;;29.67;25.92;;;10.10;99.90;;;;;;5016368;28;20231;-76
2024/02/19 03:57:12;;;;;;;27.25;24.50;;;10.10;99.90;;;;;;5016394;28;20770;-76
2024/02/19 03:59:39;;;;;;;37.00;31.67;;;10.10;99.90;;;;;;5018126;28;20244;-76
2024/02/19 04:02:06;;;;;;;29.13;25.98;;;10.10;99.90;;;;;;5016493;28;20306;-77
2024/02/19 04:04:33;;;;;;;28.73;25.73;;;10.00;99.90;;;;;;5018477;28;20236;-77
2024/02/19 04:07:00;;;;;;;38.70;33.15;;;10.00;99.90;;;;;;5018378;28;20786;-76
2024/02/19 04:09:27;;;;;;;31.02;27.70;;;10.00;99.90;;;;;;5040560;28;20239;-76
2024/02/19 04:11:55;;;;;;;30.30;26.95;;;10.00;99.90;;;;;;5011556;28;20318;-76
2024/02/19 04:14:22;;;;;;;30.20;25.77;;;9.90;99.90;;;;;;5018755;28;20227;-76
2024/02/19 04:16:49;;;;;;;34.05;29.48;;;9.80;99.90;;;;;;5018390;28;20875;-76
2024/02/19 04:19:17;;;;;;;35.08;31.15;;;9.80;99.90;;;;;;5020084;28;20239;-76
2024/02/19 04:21:45;;;;;;;33.95;30.27;;;9.80;99.90;;;;;;5014633;28;20312;-75
2024/02/19 04:24:12;;;;;;;33.17;29.42;;;9.70;99.90;;;;;;5019404;28;20255;-76
2024/02/19 04:26:39;;;;;;;33.42;29.80;;;9.70;99.90;;;;;;5014424;28;20239;-76
2024/02/19 04:29:09;;;;;;;32.25;28.70;;;9.70;99.90;;;;;;5017865;28;20243;-75
2024/02/19 04:31:36;;;;;;;31.00;26.92;;;9.70;99.90;;;;;;5018485;28;20255;-76
2024/02/19 04:34:05;;;;;;;31.38;27.40;;;9.70;99.90;;;;;;5020629;28;20422;-75
2024/02/19 04:36:32;;;;;;;31.15;27.95;;;9.60;99.90;;;;;;5016051;28;20224;-75
2024/02/19 04:38:59;;;;;;;31.92;28.25;;;9.60;99.90;;;;;;5015808;28;20697;-76
2024/02/19 04:41:26;;;;;;;33.40;29.80;;;9.50;99.90;;;;;;5019098;28;20274;-76
2024/02/19 04:43:53;;;;;;;30.08;26.88;;;9.50;99.90;;;;;;5019605;28;20242;-75
2024/02/19 04:46:21;;;;;;;30.48;27.23;;;9.50;99.90;;;;;;5016418;28;20305;-77
2024/02/19 04:48:48;;;;;;;29.15;25.90;;;9.50;99.90;;;;;;5013672;28;20259;-76
2024/02/19 04:51:15;;;;;;;30.73;27.38;;;9.40;99.90;;;;;;5015951;28;20847;-76
2024/02/19 04:53:42;;;;;;;30.00;26.85;;;9.40;99.90;;;;;;5017106;28;20263;-76
2024/02/19 04:56:09;;;;;;;31.73;28.42;;;9.30;99.90;;;;;;5013175;28;20744;-76
2024/02/19 04:58:36;;;;;;;34.17;30.48;;;9.30;99.90;;;;;;5015639;28;20239;-75
2024/02/19 05:01:03;;;;;;;33.20;29.58;;;9.30;99.90;;;;;;5014196;28;20780;-76
2024/02/19 05:03:32;;;;;;;32.22;28.77;;;9.30;99.90;;;;;;5018390;28;20227;-76
2024/02/19 05:05:59;;;;;;;32.85;28.60;;;9.20;99.90;;;;;;5019021;28;20259;-75
2024/02/19 05:08:26;;;;;;;31.95;27.88;;;9.20;99.90;;;;;;5016640;28;20239;-76
2024/02/19 05:10:52;;;;;;;30.00;26.80;;;9.20;99.90;;;;;;5016955;28;20904;-75
2024/02/19 05:13:19;;;;;;;30.65;27.27;;;9.20;99.90;;;;;;5016712;28;20223;-76
2024/02/19 05:15:46;;;;;;;31.00;27.38;;;9.20;99.90;;;;;;5020895;28;20343;-75
2024/02/19 05:18:13;;;;;;;32.20;28.73;;;9.20;99.90;;;;;;5019117;28;20637;-76
2024/02/19 05:20:42;;;;;;;29.23;26.05;;;9.20;99.90;;;;;;5017875;28;21009;-75
2024/02/19 05:23:08;;;;;;;32.58;28.45;;;9.20;99.90;;;;;;5018595;28;20239;-76
2024/02/19 05:25:35;;;;;;;32.80;29.23;;;9.10;99.90;;;;;;5021600;28;20215;-75
2024/02/19 05:28:02;;;;;;;32.28;28.65;;;9.10;99.90;;;;;;5023013;28;20203;-76
2024/02/19 05:30:29;;;;;;;31.02;27.70;;;9.00;99.90;;;;;;5017828;28;20220;-75
2024/02/19 05:32:56;;;;;;;30.92;27.58;;;9.00;99.90;;;;;;5022806;28;20223;-75
2024/02/19 05:35:24;;;;;;;30.17;26.75;;;9.00;99.90;;;;;;5019597;28;20251;-75
2024/02/19 05:37:53;;;;;;;29.10;25.90;;;8.90;99.90;;;;;;5022225;28;21423;-75
2024/02/19 05:40:20;;;;;;;28.75;25.75;;;9.00;99.90;;;;;;5023070;28;20270;-75
2024/02/19 05:42:47;;;;;;;26.90;24.02;;;8.90;99.90;;;;;;5020967;28;20317;-75
2024/02/19 05:45:14;;;;;;;25.13;22.63;;;8.90;99.90;;;;;;5020923;28;20246;-75
2024/02/19 05:47:41;;;;;;;28.23;25.23;;;8.90;99.90;;;;;;5021609;28;20257;-76
2024/02/19 05:50:10;;;;;;;27.65;24.65;;;8.90;99.90;;;;;;5018397;28;20224;-75
2024/02/19 05:52:37;;;;;;;29.13;23.77;;;8.90;99.90;;;;;;5022317;28;20306;-76
2024/02/19 05:55:09;;;;;;;26.40;23.38;;;8.90;99.90;;;;;;5021116;28;22072;-76
2024/02/19 05:57:36;;;;;;;25.27;22.58;;;8.90;99.90;;;;;;5023136;28;20684;-76
2024/02/19 06:00:05;;;;;;;25.08;22.48;;;8.90;99.90;;;;;;5018822;28;20649;-75
2024/02/19 06:02:32;;;;;;;24.95;22.25;;;9.00;99.90;;;;;;5020738;28;20215;-75
2024/02/19 06:04:59;;;;;;;24.98;22.35;;;8.90;99.90;;;;;;5012713;28;20242;-75
2024/02/19 06:07:26;;;;;;;25.50;22.80;;;8.90;99.90;;;;;;5020846;28;20212;-75
2024/02/19 06:09:53;;;;;;;25.67;22.33;;;8.90;99.90;;;;;;5020005;28;20309;-75
2024/02/19 06:12:22;;;;;;;27.55;22.65;;;8.90;99.90;;;;;;5020806;28;20207;-75
2024/02/19 06:14:48;;;;;;;26.63;23.48;;;8.90;99.90;;;;;;5017317;28;20323;-75
2024/02/19 06:17:16;;;;;;;26.08;23.27;;;8.80;99.90;;;;;;5019168;28;20305;-76
2024/02/19 06:19:43;;;;;;;32.45;28.80;;;8.90;99.90;;;;;;5018897;28;20938;-75
2024/02/19 06:22:12;;;;;;;31.92;28.67;;;8.90;99.90;;;;;;5013811;28;20834;-75
2024/02/19 06:24:39;;;;;;;27.63;24.63;;;8.80;99.90;;;;;;5020984;28;20235;-75
2024/02/19 06:27:06;;;;;;;26.73;22.92;;;8.80;99.90;;;;;;5018645;28;20228;-75
2024/02/19 06:29:34;;;;;;;25.80;23.10;;;8.80;99.90;;;;;;5021244;28;20219;-76
2024/02/19 06:32:02;;;;;;;25.20;22.60;;;8.80;99.90;;;;;;5019300;28;20234;-75
2024/02/19 06:34:30;;;;;;;24.13;21.63;;;8.80;99.90;;;;;;5022215;28;20215;-75
2024/02/19 06:36:57;;;;;;;25.23;22.55;;;8.80;99.90;;;;;;5019438;28;20304;-75
2024/02/19 06:39:23;;;;;;;26.33;23.45;;;8.80;99.90;;;;;;5023031;28;20247;-78
2024/02/19 06:41:50;;;;;;;26.05;23.02;;;8.70;99.90;;;;;;5015626;28;20247;-75
2024/02/19 06:44:17;;;;;;;24.33;21.83;;;8.60;99.90;;;;;;5014228;28;20787;-76
2024/02/19 06:46:46;;;;;;;25.88;23.02;;;8.60;99.90;;;;;;5016966;28;20227;-76
2024/02/19 06:49:13;;;;;;;28.63;24.27;;;8.50;99.90;;;;;;5019119;28;20223;-74
2024/02/19 06:51:40;;;;;;;28.40;25.40;;;8.50;99.90;;;;;;5020576;28;20255;-76
2024/02/19 06:54:07;;;;;;;24.90;22.30;;;8.50;99.90;;;;;;5015928;28;20701;-75
2024/02/19 06:56:34;;;;;;;22.42;19.92;;;8.50;99.90;;;;;;5026002;28;20822;-75
2024/02/19 06:59:01;;;;;;;25.35;22.70;;;8.50;99.90;;;;;;5021733;28;20223;-75
2024/02/19 07:01:28;;;;;;;26.15;23.45;;;8.60;99.90;;;;;;5011456;28;20235;-76
2024/02/19 07:03:56;;;;;;;26.23;23.33;;;8.60;99.90;;;;;;5018260;28;20219;-76
2024/02/19 07:06:24;;;;;;;23.42;21.02;;;8.60;99.90;;;;;;5019635;28;20259;-76
2024/02/19 07:08:51;;;;;;;20.90;18.80;;;8.60;99.90;;;;;;5016669;28;20285;-76
2024/02/19 07:11:18;;;;;;;21.30;19.13;;;8.70;99.90;;;;;;5016554;28;20239;-76
2024/02/19 07:13:49;;;;;;;22.55;20.23;;;8.80;99.90;;;;;;5019671;28;20251;-76
2024/02/19 07:16:16;;;;;;;24.98;21.20;;;8.80;99.90;;;;;;5020179;28;20302;-76
2024/02/19 07:18:43;;;;;;;21.83;19.23;;;8.80;99.90;;;;;;5015523;28;20274;-76
2024/02/19 07:21:11;;;;;;;20.75;18.60;;;8.80;99.90;;;;;;5013167;28;20244;-77
2024/02/19 07:23:38;;;;;;;22.35;19.95;;;8.90;99.90;;;;;;5013016;28;20298;-76
2024/02/19 07:26:05;;;;;;;24.02;21.17;;;8.90;99.90;;;;;;5012636;28;20236;-76
2024/02/19 07:28:32;;;;;;;21.95;19.58;;;8.90;99.90;;;;;;5016407;28;20733;-75
2024/02/19 07:30:59;;;;;;;24.33;21.50;;;9.20;99.90;;;;;;5017004;28;20246;-76
2024/02/19 07:33:28;;;;;;;23.98;21.25;;;9.90;99.90;;;;;;5014676;28;20791;-76
2024/02/19 07:35:55;;;;;;;23.33;20.92;;;10.70;99.90;;;;;;5009859;28;20314;-76
2024/02/19 07:38:24;;;;;;;26.95;23.85;;;11.50;99.90;;;;;;5011612;28;20321;-76
2024/02/19 07:40:51;;;;;;;29.25;25.73;;;12.20;99.90;;;;;;5013470;28;20247;-75
2024/02/19 07:43:18;;;;;;;31.42;28.05;;;12.80;99.90;;;;;;5013028;28;20752;-75
2024/02/19 07:45:45;;;;;;;30.23;27.02;;;13.20;99.90;;;;;;5015791;28;20748;-75
2024/02/19 07:48:12;;;;;;;33.45;27.85;;;13.40;99.90;;;;;;5011213;28;20232;-75
2024/02/19 07:50:39;;;;;;;31.92;28.48;;;13.80;99.90;;;;;;5014014;28;20851;-75
2024/02/19 07:53:06;;;;;;;31.35;27.95;;;14.20;99.90;;;;;;5013184;28;20664;-76
2024/02/19 07:55:37;;;;;;;32.38;27.70;;;14.70;99.90;;;;;;5009361;28;20700;-77
2024/02/19 07:58:05;;;;;;;27.67;24.67;;;15.00;99.90;;;;;;5016282;28;20218;-77
2024/02/19 08:00:32;;;;;;;32.88;28.83;;;15.20;99.90;;;;;;5013203;28;20233;-77
2024/02/19 08:02:59;;;;;;;28.08;25.20;;;15.40;99.90;;;;;;5016575;28;20233;-77
2024/02/19 08:05:26;;;;;;;27.80;24.85;;;15.50;99.90;;;;;;5013894;28;20334;-77
2024/02/19 08:07:52;;;;;;;29.00;25.85;;;15.80;99.90;;;;;;5009448;28;20269;-76
2024/02/19 08:10:19;;;;;;;32.20;28.83;;;16.00;99.90;;;;;;5011948;28;20440;-78
2024/02/19 08:12:48;;;;;;;29.67;26.52;;;16.20;99.90;;;;;;5041105;28;20258;-77
2024/02/19 08:15:15;;;;;;;27.45;24.63;;;16.40;99.90;;;;;;5014064;28;20716;-75
2024/02/19 08:17:42;;;;;;;23.90;21.52;;;16.50;99.90;;;;;;5014739;28;20250;-77
2024/02/19 08:20:10;;;;;;;24.90;22.48;;;16.70;99.90;;;;;;5010465;28;20932;-73
2024/02/19 08:22:37;;;;;;;26.75;23.45;;;16.50;99.90;;;;;;5017475;28;20292;-77
2024/02/19 08:25:05;;;;;;;28.95;25.60;;;16.30;99.90;;;;;;5019905;28;20281;-79
2024/02/19 08:27:32;;;;;;;29.27;25.33;;;15.90;99.90;;;;;;5018348;28;20199;-75
2024/02/19 08:30:00;;;;;;;28.60;25.60;;;15.60;99.90;;;;;;5013183;28;21583;-75
2024/02/19 08:32:27;;;;;;;32.30;28.90;;;15.60;99.90;;;;;;5009856;28;20243;-75
2024/02/19 08:34:54;;;;;;;31.25;26.48;;;15.50;99.90;;;;;;5011300;28;20216;-77
2024/02/19 08:37:21;;;;;;;28.48;25.63;;;15.70;99.90;;;;;;5011749;28;20234;-74
2024/02/19 08:39:48;;;;;;;24.95;22.35;;;16.00;99.90;;;;;;5009597;28;20705;-74
2024/02/19 08:42:15;;;;;;;28.52;24.92;;;16.30;99.90;;;;;;5018182;28;20203;-74
2024/02/19 08:44:42;;;;;;;32.40;29.00;;;16.40;99.90;;;;;;5020479;28;20812;-74
2024/02/19 08:47:10;;;;;;;35.33;31.42;;;16.30;99.90;;;;;;5012475;28;20251;-72
2024/02/19 08:49:37;;;;;;;35.60;31.83;;;16.10;99.90;;;;;;5011973;28;20255;-73
2024/02/19 08:52:05;;;;;;;32.97;29.63;;;16.10;99.90;;;;;;5018365;28;20265;-74
2024/02/19 08:54:32;;;;;;;31.10;27.88;;;16.10;99.90;;;;;;5022654;28;20297;-74
2024/02/19 08:56:59;;;;;;;27.42;24.45;;;16.00;99.90;;;;;;5021312;28;20277;-74
2024/02/19 08:59:26;;;;;;;28.20;25.23;;;15.90;99.90;;;;;;5024189;28;20643;-75
2024/02/19 09:01:54;;;;;;;28.98;25.98;;;16.00;99.90;;;;;;5018925;28;20831;-71
2024/02/19 09:04:22;;;;;;;26.67;23.98;;;16.10;99.90;;;;;;5021070;28;20230;-74
2024/02/19 09:06:49;;;;;;;29.58;25.48;;;16.30;99.90;;;;;;5021461;28;20254;-74
2024/02/19 09:09:16;;;;;;;28.17;25.25;;;16.30;99.90;;;;;;5020980;28;20226;-74
2024/02/19 09:11:43;;;;;;;26.42;23.58;;;16.40;99.90;;;;;;5018615;28;20304;-74
2024/02/19 09:14:10;;;;;;;22.15;19.98;;;16.30;99.90;;;;;;5018859;28;20932;-74
2024/02/19 09:16:37;;;;;;;24.98;22.13;;;16.20;99.90;;;;;;5018662;28;20727;-74
2024/02/19 09:19:06;;;;;;;24.85;22.30;;;16.20;99.90;;;;;;5019449;28;20247;-72
2024/02/19 09:21:34;;;;;;;23.55;21.08;;;16.40;99.90;;;;;;5019598;28;20273;-72
2024/02/19 09:24:01;;;;;;;25.00;22.33;;;16.40;99.90;;;;;;5020818;28;20242;-72
2024/02/19 09:26:28;;;;;;;24.33;21.80;;;16.60;99.90;;;;;;5020340;28;20228;-72
2024/02/19 09:28:55;;;;;;;25.20;22.42;;;16.70;99.90;;;;;;5014194;28;20662;-74
2024/02/19 09:31:23;;;;;;;21.80;19.70;;;16.80;99.90;;;;;;5019493;28;20280;-74
2024/02/19 09:33:50;;;;;;;23.08;20.70;;;17.10;99.90;;;;;;5018102;28;20220;-74
2024/02/19 09:36:18;;;;;;;23.38;20.98;;;17.20;99.90;;;;;;5017765;28;20251;-74
2024/02/19 09:38:47;;;;;;;23.15;20.83;;;17.10;99.90;;;;;;5020566;28;20294;-74
2024/02/19 09:41:14;;;;;;;22.50;20.13;;;17.10;99.90;;;;;;5018291;28;20227;-72
2024/02/19 09:43:41;;;;;;;24.20;21.65;;;16.80;99.90;;;;;;5017834;28;20234;-72
2024/02/19 09:46:15;;;;;;;24.90;22.20;;;16.80;99.90;;;;;;5017307;28;20851;-72
2024/02/19 09:48:47;;;;;;;23.48;21.15;;;16.80;99.90;;;;;;5020219;28;20356;-72
2024/02/19 09:51:18;;;;;;;23.45;20.98;;;16.50;99.90;;;;;;5016849;28;20513;-72
2024/02/19 09:53:50;;;;;;;25.02;22.55;;;16.30;99.90;;;;;;5015860;28;20353;-75
2024/02/19 09:56:18;;;;;;;22.17;19.85;;;16.20;99.90;;;;;;5022397;28;20228;-72
2024/02/19 09:58:46;;;;;;;22.33;20.08;;;16.20;99.90;;;;;;5014889;28;20228;-75
2024/02/19 10:01:13;;;;;;;25.70;23.10;;;16.00;99.90;;;;;;5017931;28;20223;-74
2024/02/19 10:03:40;;;;;;;22.52;20.15;;;16.00;99.90;;;;;;5017604;28;20324;-72
2024/02/19 10:06:08;;;;;;;22.27;20.00;;;15.90;99.90;;;;;;5020220;28;20318;-72
2024/02/19 10:08:35;;;;;;;23.30;20.88;;;16.30;99.90;;;;;;5014731;28;20286;-72
2024/02/19 10:11:08;;;;;;;26.80;21.50;;;16.70;99.90;;;;;;5017377;28;20247;-72
2024/02/19 10:13:36;;;;;;;25.38;22.67;;;16.60;99.90;;;;;;5016982;28;20612;-74
2024/02/19 10:16:06;;;;;;;23.08;20.67;;;16.60;99.90;;;;;;5012346;28;20583;-74
2024/02/19 10:18:33;;;;;;;24.50;22.10;;;16.60;99.90;;;;;;5003166;28;20214;-75
2024/02/19 10:21:01;;;;;;;21.25;19.15;;;16.70;99.90;;;;;;5008998;28;20306;-72
2024/02/19 10:23:27;;;;;;;18.52;16.73;;;16.80;99.90;;;;;;5000856;28;20207;-72
2024/02/19 10:25:55;;;;;;;26.83;23.23;;;16.80;99.90;;;;;;5001428;28;20354;-72
2024/02/19 10:28:24;;;;;;;27.13;24.23;;;16.70;99.90;;;;;;5010072;28;20205;-75
2024/02/19 10:30:51;;;;;;;26.73;23.85;;;16.60;99.90;;;;;;5014584;28;20250;-74
2024/02/19 10:33:19;;;;;;;25.40;22.80;;;16.50;99.90;;;;;;5021741;28;20682;-74
2024/02/19 10:35:48;;;;;;;26.33;23.63;;;16.30;99.90;;;;;;5018915;28;20827;-75
2024/02/19 10:38:16;;;;;;;25.98;23.17;;;16.10;99.90;;;;;;5019277;28;20214;-74
2024/02/19 10:40:43;;;;;;;25.02;22.45;;;16.40;99.90;;;;;;5016141;28;20334;-74
2024/02/19 10:43:12;;;;;;;28.17;25.08;;;16.90;99.90;;;;;;5020955;28;20682;-72
2024/02/19 10:45:41;;;;;;;25.67;22.15;;;17.50;99.90;;;;;;5014771;28;20223;-72
2024/02/19 10:48:09;;;;;;;26.40;23.50;;;18.00;99.90;;;;;;5019061;28;20232;-72
2024/02/19 10:50:37;;;;;;;24.65;22.15;;;18.20;99.90;;;;;;5018960;28;20220;-72
2024/02/19 10:53:05;;;;;;;24.73;22.23;;;18.60;99.90;;;;;;5018427;28;20298;-72
2024/02/19 10:55:35;;;;;;;23.00;20.65;;;18.50;99.90;;;;;;5014171;28;20325;-72
2024/02/19 10:58:02;;;;;;;20.50;18.17;;;18.50;99.90;;;;;;5018118;28;20203;-74
2024/02/19 11:00:29;;;;;;;21.60;19.40;;;18.90;99.90;;;;;;5014339;28;20248;-75
2024/02/19 11:03:05;;;;;;;20.58;18.48;;;19.20;99.90;;;;;;5018602;28;20758;-74
2024/02/19 11:05:35;;;;;;;19.52;17.50;;;19.70;99.90;;;;;;5014574;28;20262;-74
2024/02/19 11:08:02;;;;;;;19.60;17.70;;;19.90;99.90;;;;;;5014776;28;20203;-72
2024/02/19 11:10:41;;;;;;;16.67;14.98;;;19.90;99.90;;;;;;5015768;28;20753;-75
2024/02/19 11:13:08;;;;;;;14.00;12.13;;;20.40;99.90;;;;;;5018887;28;20203;-75
2024/02/19 11:15:41;;;;;;;17.90;15.73;;;20.90;99.90;;;;;;5020208;28;20318;-75
2024/02/19 11:18:16;;;;;;;16.15;14.50;;;21.20;99.90;;;;;;5014934;28;20208;-74
2024/02/19 11:20:43;;;;;;;15.88;14.38;;;21.10;99.90;;;;;;5010491;28;20301;-74
2024/02/19 11:23:11;;;;;;;18.23;14.70;;;20.50;99.90;;;;;;5014356;28;20640;-75
2024/02/19 11:25:39;;;;;;;15.45;13.95;;;20.20;99.90;;;;;;5018307;28;20247;-75
2024/02/19 11:28:06;;;;;;;14.45;12.38;;;19.90;99.90;;;;;;5016535;28;20214;-75
2024/02/19 11:30:33;;;;;;;13.23;11.93;;;20.10;99.90;;;;;;5012754;28;20247;-75
2024/02/19 11:33:01;;;;;;;13.70;12.38;;;20.30;99.90;;;;;;5021163;28;20290;-75
2024/02/19 11:35:30;;;;;;;13.52;11.63;;;20.30;99.90;;;;;;5015843;28;20886;-74
2024/02/19 11:37:57;;;;;;;12.52;10.18;;;20.10;99.90;;;;;;5015831;28;20234;-74
2024/02/19 11:40:31;;;;;;;9.05;8.15;;;20.10;99.90;;;;;;5016288;28;22033;-74
2024/02/19 11:42:59;;;;;;;8.30;6.50;;;20.00;99.90;;;;;;5018235;28;20207;-74
2024/02/19 11:45:27;;;;;;;8.07;6.57;;;20.00;99.90;;;;;;5013249;28;20230;-75
2024/02/19 11:47:54;;;;;;;6.57;5.88;;;19.50;99.90;;;;;;5017192;28;20255;-75
2024/02/19 11:50:25;;;;;;;5.65;5.15;;;19.30;99.90;;;;;;5011892;28;20271;-75
2024/02/19 11:52:55;;;;;;;6.07;5.47;;;19.30;99.90;;;;;;5014801;28;20740;-75
2024/02/19 11:55:23;;;;;;;4.32;3.95;;;19.60;99.90;;;;;;5015990;28;20915;-75
2024/02/19 11:57:51;;;;;;;4.97;4.45;;;19.80;99.90;;;;;;5016959;28;20727;-75
2024/02/19 12:00:18;;;;;;;5.05;4.55;;;20.00;99.90;;;;;;5013450;28;20314;-74
2024/02/19 12:02:47;;;;;;;5.20;4.70;;;20.20;99.90;;;;;;5017963;28;20200;-74
2024/02/19 12:05:16;;;;;;;8.77;4.80;;;20.20;99.90;;;;;;5016286;28;20243;-75
2024/02/19 12:07:43;;;;;;;5.05;4.57;;;19.80;99.90;;;;;;5019140;28;20200;-74
2024/02/19 12:10:12;;;;;;;5.53;4.80;;;19.70;99.90;;;;;;5013587;28;20254;-74
2024/02/19 12:12:40;;;;;;;6.22;4.57;;;19.90;99.90;;;;;;5015218;28;20295;-74
2024/02/19 12:15:11;;;;;;;10.02;5.68;;;19.50;99.90;;;;;;5016535;28;20259;-75
2024/02/19 12:17:38;;;;;;;6.28;5.18;;;19.50;99.90;;;;;;5015015;28;20374;-75
2024/02/19 12:20:07;;;;;;;5.60;5.10;;;19.30;99.90;;;;;;5012610;28;20306;-74
2024/02/19 12:22:34;;;;;;;5.00;4.50;;;19.00;99.90;;;;;;5014040;28;20263;-74
2024/02/19 12:25:01;;;;;;;5.57;5.07;;;19.20;99.90;;;;;;5015736;28;20231;-75
2024/02/19 12:27:29;;;;;;;8.07;4.80;;;19.50;99.90;;;;;;5023694;28;20315;-74
2024/02/19 12:29:57;;;;;;;5.30;4.82;;;19.90;99.90;;;;;;5018573;28;20716;-74
2024/02/19 12:32:24;;;;;;;5.20;4.70;;;20.20;99.90;;;;;;5023050;28;20204;-74